createdAt,value
2017-06-29T00:02:05.701Z,23.63
2017-06-29T00:04:32.263Z,25.60
2017-06-29T00:06:58.696Z,23.90
2017-06-29T00:09:25.233Z,21.30
2017-06-29T00:11:52.382Z,26.00
2017-06-29T00:14:18.869Z,20.60
2017-06-29T00:16:45.310Z,25.80
2017-06-29T00:19:11.741Z,27.30
2017-06-29T00:21:38.175Z,24.40
2017-06-29T00:24:04.671Z,23.47
2017-06-29T00:26:32.283Z,26.20
2017-06-29T00:28:58.736Z,24.37
2017-06-29T00:31:25.190Z,22.93
2017-06-29T00:33:51.632Z,24.60
2017-06-29T00:36:18.844Z,20.63
2017-06-29T00:38:45.783Z,23.63
2017-06-29T00:41:12.221Z,22.27
2017-06-29T00:43:38.660Z,19.93
2017-06-29T00:46:05.282Z,20.50
2017-06-29T00:48:31.715Z,19.37
2017-06-29T00:50:58.195Z,20.90
2017-06-29T00:53:24.668Z,18.30
2017-06-29T00:55:51.135Z,21.40
2017-06-29T00:58:17.604Z,18.90
2017-06-29T01:00:44.048Z,18.67
2017-06-29T01:03:10.505Z,17.70
2017-06-29T01:05:37.700Z,18.00
2017-06-29T01:08:04.133Z,16.30
2017-06-29T01:10:30.596Z,16.40
2017-06-29T01:12:57.093Z,14.40
2017-06-29T01:15:23.562Z,16.97
2017-06-29T01:17:49.989Z,17.90
2017-06-29T01:20:16.467Z,15.20
2017-06-29T01:22:42.886Z,15.03
2017-06-29T01:25:09.336Z,15.53
2017-06-29T01:27:35.768Z,15.00
2017-06-29T01:30:02.342Z,15.23
2017-06-29T01:32:28.793Z,13.83
2017-06-29T01:34:55.280Z,14.53
2017-06-29T01:37:21.737Z,15.43
2017-06-29T01:39:48.953Z,15.07
2017-06-29T01:42:15.363Z,13.50
2017-06-29T01:44:41.902Z,18.23
2017-06-29T01:47:08.345Z,14.10
2017-06-29T01:49:34.802Z,20.13
2017-06-29T01:52:01.270Z,15.80
2017-06-29T01:54:27.822Z,20.43
2017-06-29T01:56:58.932Z,15.80
2017-06-29T01:59:26.216Z,16.17
2017-06-29T02:01:52.670Z,15.13
2017-06-29T02:04:19.151Z,13.77
2017-06-29T02:06:45.653Z,15.20
2017-06-29T02:09:12.873Z,13.27
2017-06-29T02:11:39.351Z,17.67
2017-06-29T02:14:05.863Z,14.40
2017-06-29T02:16:32.325Z,16.83
2017-06-29T02:18:58.743Z,14.43
2017-06-29T02:21:25.151Z,13.57
2017-06-29T02:23:51.661Z,17.37
2017-06-29T02:26:18.135Z,13.50
2017-06-29T02:28:44.567Z,13.23
2017-06-29T02:31:10.997Z,13.93
2017-06-29T02:33:37.404Z,16.17
2017-06-29T02:36:03.859Z,13.70
2017-06-29T02:38:30.308Z,13.23
2017-06-29T02:40:56.765Z,15.80
2017-06-29T02:43:23.476Z,15.13
2017-06-29T02:45:49.932Z,12.87
2017-06-29T02:48:16.348Z,13.63
2017-06-29T02:50:42.923Z,14.03
2017-06-29T02:53:09.389Z,14.53
2017-06-29T02:55:35.882Z,12.83
2017-06-29T02:58:02.317Z,14.60
2017-06-29T03:00:29.537Z,13.13
2017-06-29T03:02:55.984Z,16.90
2017-06-29T03:05:22.511Z,13.97
2017-06-29T03:07:48.956Z,16.90
2017-06-29T03:10:15.440Z,16.10
2017-06-29T03:12:41.870Z,15.73
2017-06-29T03:15:08.321Z,13.43
2017-06-29T03:17:34.726Z,14.63
2017-06-29T03:20:01.183Z,14.33
2017-06-29T03:22:28.344Z,18.73
2017-06-29T03:24:54.768Z,15.00
2017-06-29T03:27:21.944Z,15.00
2017-06-29T03:29:48.457Z,17.43
2017-06-29T03:32:14.876Z,14.40
2017-06-29T03:34:41.322Z,17.70
2017-06-29T03:37:07.756Z,13.50
2017-06-29T03:39:34.262Z,14.23
2017-06-29T03:42:00.710Z,16.57
2017-06-29T03:44:27.179Z,18.47
2017-06-29T03:46:53.611Z,16.37
2017-06-29T03:49:20.115Z,12.73
2017-06-29T03:51:46.568Z,14.53
2017-06-29T03:54:13.044Z,17.33
2017-06-29T03:56:39.465Z,14.43
2017-06-29T03:59:05.969Z,14.50
2017-06-29T04:01:32.406Z,17.73
2017-06-29T04:03:58.874Z,17.43
2017-06-29T04:06:25.328Z,13.30
2017-06-29T04:08:51.825Z,14.57
2017-06-29T04:11:18.325Z,15.37
2017-06-29T04:13:45.505Z,16.47
2017-06-29T04:16:12.037Z,13.43
2017-06-29T04:18:38.473Z,12.50
2017-06-29T04:21:05.674Z,13.17
2017-06-29T04:23:32.139Z,12.60
2017-06-29T04:25:58.611Z,12.77
2017-06-29T04:28:25.043Z,12.53
2017-06-29T04:30:51.511Z,10.20
2017-06-29T04:33:17.996Z,15.03
2017-06-29T04:35:44.444Z,11.63
2017-06-29T04:38:11.244Z,10.60
2017-06-29T04:40:37.701Z,12.97
2017-06-29T04:43:04.521Z,8.87
2017-06-29T04:45:31.364Z,10.03
2017-06-29T04:47:57.933Z,10.67
2017-06-29T04:50:32.080Z,8.53
2017-06-29T04:52:58.589Z,10.00
2017-06-29T04:55:25.097Z,10.87
2017-06-29T04:57:51.635Z,10.47
2017-06-29T05:00:18.892Z,9.23
2017-06-29T05:02:45.430Z,9.33
2017-06-29T05:05:11.895Z,8.57
2017-06-29T05:07:38.316Z,10.00
2017-06-29T05:10:04.748Z,10.83
2017-06-29T05:12:31.315Z,8.63
2017-06-29T05:14:58.505Z,8.43
2017-06-29T05:17:25.112Z,9.13
2017-06-29T05:19:52.451Z,13.10
2017-06-29T05:22:18.940Z,8.60
2017-06-29T05:24:45.525Z,8.47
2017-06-29T05:27:11.991Z,8.30
2017-06-29T05:29:38.506Z,12.60
2017-06-29T05:32:04.962Z,10.70
2017-06-29T05:34:31.452Z,9.80
2017-06-29T05:36:58.706Z,8.37
2017-06-29T05:39:25.201Z,11.47
2017-06-29T05:41:52.096Z,8.50
2017-06-29T05:44:18.616Z,23.37
2017-06-29T05:46:45.119Z,12.83
2017-06-29T05:49:12.774Z,10.53
2017-06-29T05:51:39.231Z,9.03
2017-06-29T05:54:06.677Z,12.77
2017-06-29T05:56:33.398Z,9.33
2017-06-29T05:58:59.863Z,9.53
2017-06-29T06:01:26.334Z,9.40
2017-06-29T06:03:54.341Z,9.70
2017-06-29T06:06:20.876Z,7.90
2017-06-29T06:08:47.356Z,9.63
2017-06-29T06:11:14.598Z,5.60
2017-06-29T06:13:41.031Z,7.87
2017-06-29T06:16:07.461Z,9.07
2017-06-29T06:18:34.616Z,6.63
2017-06-29T06:21:01.956Z,6.40
2017-06-29T06:23:28.374Z,8.47
2017-06-29T06:25:54.813Z,8.73
2017-06-29T06:28:21.568Z,8.10
2017-06-29T06:30:48.000Z,7.50
2017-06-29T06:33:14.439Z,8.17
2017-06-29T06:35:42.344Z,7.00
2017-06-29T06:38:09.681Z,8.63
2017-06-29T06:40:36.136Z,7.40
2017-06-29T06:43:02.630Z,7.90
2017-06-29T06:45:29.072Z,6.70
2017-06-29T06:47:55.522Z,6.73
2017-06-29T06:50:21.945Z,6.67
2017-06-29T06:52:48.468Z,10.07
2017-06-29T06:55:15.698Z,7.47
2017-06-29T06:57:42.151Z,8.33
2017-06-29T07:00:08.599Z,6.63
2017-06-29T07:02:35.030Z,6.67
2017-06-29T07:05:01.524Z,7.60
2017-06-29T07:07:28.401Z,7.30
2017-06-29T07:10:12.237Z,7.83
2017-06-29T07:12:38.720Z,7.43
2017-06-29T07:15:05.179Z,7.20
2017-06-29T07:17:38.509Z,8.23
2017-06-29T07:20:04.962Z,7.10
2017-06-29T07:22:31.436Z,6.67
2017-06-29T07:24:57.880Z,7.43
2017-06-29T07:27:24.332Z,7.03
2017-06-29T07:29:50.773Z,12.93
2017-06-29T07:32:17.247Z,7.80
2017-06-29T07:34:46.500Z,9.23
2017-06-29T07:37:13.699Z,9.87
2017-06-29T07:39:40.137Z,10.47
2017-06-29T07:42:06.568Z,6.93
2017-06-29T07:44:33.010Z,6.57
2017-06-29T07:46:59.465Z,7.07
2017-06-29T07:49:26.039Z,7.33
2017-06-29T07:51:52.541Z,7.37
2017-06-29T07:54:19.807Z,6.63
2017-06-29T07:56:46.983Z,12.87
2017-06-29T07:59:13.398Z,7.03
2017-06-29T08:01:39.871Z,6.70
2017-06-29T08:04:06.307Z,7.10
2017-06-29T08:06:32.855Z,7.57
2017-06-29T08:08:59.521Z,7.50
2017-06-29T08:11:26.672Z,6.23
2017-06-29T08:13:53.136Z,5.07
2017-06-29T08:16:19.574Z,5.40
2017-06-29T08:18:46.003Z,4.80
2017-06-29T08:21:13.438Z,4.90
2017-06-29T08:23:41.552Z,5.57
2017-06-29T08:26:09.000Z,4.30
2017-06-29T08:28:36.491Z,5.70
2017-06-29T08:31:02.995Z,3.97
2017-06-29T08:33:29.543Z,5.70
2017-06-29T08:35:55.973Z,6.23
2017-06-29T08:38:22.459Z,4.43
2017-06-29T08:40:48.903Z,4.40
2017-06-29T08:43:15.343Z,4.37
2017-06-29T08:48:15.021Z,3.70
2017-06-29T08:50:41.431Z,4.90
2017-06-29T08:53:07.928Z,4.43
2017-06-29T08:55:34.451Z,4.83
2017-06-29T08:58:00.893Z,3.70
2017-06-29T09:00:27.343Z,3.90
2017-06-29T09:02:53.803Z,4.13
2017-06-29T09:05:20.241Z,4.03
2017-06-29T09:07:46.631Z,4.33
2017-06-29T09:10:13.112Z,4.00
2017-06-29T09:12:39.515Z,3.90
2017-06-29T09:15:06.045Z,3.67
2017-06-29T09:17:33.197Z,3.63
2017-06-29T09:19:59.593Z,3.40
2017-06-29T09:22:26.220Z,5.80
2017-06-29T09:24:52.798Z,3.87
2017-06-29T09:27:23.208Z,4.37
2017-06-29T09:29:49.646Z,7.77
2017-06-29T09:32:16.090Z,4.90
2017-06-29T09:34:42.514Z,4.33
2017-06-29T09:37:08.928Z,5.50
2017-06-29T09:39:35.321Z,5.00
2017-06-29T09:42:01.741Z,4.20
2017-06-29T09:44:28.971Z,5.47
2017-06-29T09:46:55.393Z,4.07
2017-06-29T09:49:21.791Z,3.73
2017-06-29T09:51:48.273Z,4.10
2017-06-29T09:54:14.724Z,4.03
2017-06-29T09:56:41.120Z,4.20
2017-06-29T09:59:07.611Z,3.93
2017-06-29T10:01:34.097Z,3.83
2017-06-29T10:04:00.582Z,5.30
2017-06-29T10:06:26.999Z,4.13
2017-06-29T10:08:53.412Z,4.50
2017-06-29T10:11:20.592Z,4.77
2017-06-29T10:13:47.540Z,6.13
2017-06-29T10:16:13.988Z,5.27
2017-06-29T10:18:40.432Z,4.80
2017-06-29T10:21:06.851Z,5.03
2017-06-29T10:23:33.273Z,3.30
2017-06-29T10:25:59.681Z,4.10
2017-06-29T10:28:26.108Z,3.00
2017-06-29T10:30:52.574Z,5.73
2017-06-29T10:33:18.976Z,3.30
2017-06-29T10:35:45.412Z,2.93
2017-06-29T10:38:11.887Z,3.90
2017-06-29T10:40:38.324Z,3.67
2017-06-29T10:43:05.535Z,3.50
2017-06-29T10:45:31.992Z,2.73
2017-06-29T10:47:58.483Z,3.33
2017-06-29T10:50:24.926Z,4.40
2017-06-29T10:52:51.377Z,3.80
2017-06-29T10:55:17.823Z,4.10
2017-06-29T10:57:44.236Z,4.20
2017-06-29T11:00:10.667Z,4.40
2017-06-29T11:02:37.080Z,4.97
2017-06-29T11:05:03.492Z,3.37
2017-06-29T11:07:29.919Z,3.50
2017-06-29T11:09:56.561Z,4.00
2017-06-29T11:12:22.995Z,3.20
2017-06-29T11:14:49.404Z,4.20
2017-06-29T11:17:15.850Z,3.63
2017-06-29T11:19:42.271Z,4.20
2017-06-29T11:22:08.785Z,3.00
2017-06-29T11:24:35.215Z,3.73
2017-06-29T11:27:01.657Z,3.87
2017-06-29T11:29:28.056Z,3.60
2017-06-29T11:31:54.928Z,3.63
2017-06-29T11:34:21.387Z,3.90
2017-06-29T11:36:47.773Z,4.27
2017-06-29T11:39:14.224Z,4.73
2017-06-29T11:41:40.652Z,4.10
2017-06-29T11:44:07.096Z,4.13
2017-06-29T11:46:33.501Z,5.30
2017-06-29T11:48:59.930Z,3.60
2017-06-29T11:51:26.336Z,4.93
2017-06-29T11:53:52.756Z,4.20
2017-06-29T11:56:19.184Z,3.93
2017-06-29T11:58:45.622Z,2.97
2017-06-29T12:01:12.054Z,3.53
2017-06-29T12:03:39.272Z,3.43
2017-06-29T12:06:05.704Z,3.40
2017-06-29T12:08:32.116Z,3.83
2017-06-29T12:10:58.540Z,3.23
2017-06-29T12:13:24.939Z,4.03
2017-06-29T12:15:51.375Z,3.37
2017-06-29T12:18:17.821Z,3.40
2017-06-29T12:20:44.250Z,5.70
2017-06-29T12:23:10.756Z,3.97
2017-06-29T12:25:37.157Z,4.97
2017-06-29T12:28:03.624Z,4.63
2017-06-29T12:30:30.116Z,3.80
2017-06-29T12:32:56.529Z,3.33
2017-06-29T12:35:22.977Z,4.20
2017-06-29T12:37:49.457Z,4.97
2017-06-29T12:40:15.888Z,3.77
2017-06-29T12:42:42.325Z,3.20
2017-06-29T12:45:08.757Z,2.93
2017-06-29T12:47:35.172Z,2.57
2017-06-29T12:50:01.565Z,2.20
2017-06-29T12:52:27.988Z,3.03
2017-06-29T12:54:54.468Z,2.97
2017-06-29T12:57:20.879Z,2.50
2017-06-29T12:59:47.353Z,2.23
2017-06-29T13:02:17.518Z,2.10
2017-06-29T13:04:43.976Z,1.97
2017-06-29T13:07:15.892Z,2.57
2017-06-29T13:09:43.722Z,5.60
2017-06-29T13:12:10.952Z,2.80
2017-06-29T13:14:44.084Z,2.23
2017-06-29T13:17:10.503Z,2.30
2017-06-29T13:19:43.333Z,1.60
2017-06-29T13:22:11.123Z,1.57
2017-06-29T13:24:37.535Z,1.60
2017-06-29T13:27:03.924Z,1.70
2017-06-29T13:29:31.599Z,1.50
2017-06-29T13:31:58.228Z,2.53
2017-06-29T13:34:29.682Z,1.80
2017-06-29T13:36:56.334Z,2.03
2017-06-29T13:39:22.867Z,2.17
2017-06-29T13:41:49.419Z,1.77
2017-06-29T13:44:15.884Z,2.30
2017-06-29T13:46:43.115Z,1.70
2017-06-29T13:49:12.660Z,2.20
2017-06-29T13:51:39.043Z,2.87
2017-06-29T13:54:05.915Z,1.97
2017-06-29T13:56:32.332Z,1.63
2017-06-29T13:58:58.752Z,3.00
2017-06-29T14:01:25.221Z,2.17
2017-06-29T14:03:51.756Z,3.17
2017-06-29T14:06:22.116Z,2.17
2017-06-29T14:08:48.540Z,2.87
2017-06-29T14:11:15.722Z,2.50
2017-06-29T14:13:43.005Z,2.53
2017-06-29T14:16:09.498Z,3.23
2017-06-29T14:18:35.912Z,2.77
2017-06-29T14:21:02.410Z,2.63
2017-06-29T14:23:29.456Z,2.17
2017-06-29T14:25:55.932Z,2.67
2017-06-29T14:28:22.329Z,3.77
2017-06-29T14:30:49.829Z,3.63
2017-06-29T14:33:17.273Z,2.67
2017-06-29T14:35:43.675Z,4.27
2017-06-29T14:38:11.212Z,2.63
2017-06-29T14:40:37.675Z,3.00
2017-06-29T14:43:04.277Z,3.40
2017-06-29T14:45:30.893Z,3.30
2017-06-29T14:47:57.407Z,3.30
2017-06-29T14:50:23.839Z,3.73
2017-06-29T14:52:52.700Z,4.50
2017-06-29T14:55:19.429Z,3.33
2017-06-29T14:57:45.891Z,2.63
2017-06-29T15:00:16.493Z,4.03
2017-06-29T15:02:43.609Z,3.83
2017-06-29T15:05:10.116Z,4.17
2017-06-29T15:07:36.785Z,5.03
2017-06-29T15:10:03.178Z,5.50
2017-06-29T15:12:29.606Z,4.80
2017-06-29T15:14:56.033Z,3.57
2017-06-29T15:17:22.720Z,4.63
2017-06-29T15:19:52.581Z,4.87
2017-06-29T15:22:19.013Z,5.40
2017-06-29T15:24:45.430Z,5.00
2017-06-29T15:27:12.939Z,7.97
2017-06-29T15:29:39.392Z,6.00
2017-06-29T15:32:05.816Z,5.80
2017-06-29T15:34:32.332Z,7.60
2017-06-29T15:37:04.796Z,6.40
2017-06-29T15:39:31.492Z,8.43
2017-06-29T15:41:58.446Z,6.50
2017-06-29T15:44:24.892Z,6.00
2017-06-29T15:46:51.284Z,5.27
2017-06-29T15:49:17.693Z,5.50
2017-06-29T15:51:44.849Z,6.13
2017-06-29T15:54:11.996Z,6.10
2017-06-29T15:56:39.144Z,5.63
2017-06-29T15:59:05.543Z,5.63
2017-06-29T16:01:31.952Z,5.50
2017-06-29T16:03:59.273Z,6.77
2017-06-29T16:06:25.659Z,4.40
2017-06-29T16:08:52.812Z,5.50
2017-06-29T16:11:19.229Z,7.33
2017-06-29T16:13:45.707Z,8.27
2017-06-29T16:16:12.109Z,5.90
2017-06-29T16:18:38.533Z,5.50
2017-06-29T16:21:04.946Z,5.70
2017-06-29T16:23:31.360Z,5.27
2017-06-29T16:25:57.765Z,5.33
2017-06-29T16:28:29.766Z,9.67
2017-06-29T16:30:56.216Z,5.33
2017-06-29T16:33:22.619Z,5.90
2017-06-29T16:35:49.291Z,6.20
2017-06-29T16:38:15.969Z,5.60
2017-06-29T16:40:42.363Z,9.93
2017-06-29T16:43:08.782Z,5.87
2017-06-29T16:45:35.965Z,5.90
2017-06-29T16:48:02.576Z,5.97
2017-06-29T16:50:29.023Z,6.87
2017-06-29T16:52:56.183Z,6.53
2017-06-29T16:55:23.225Z,5.50
2017-06-29T16:57:49.968Z,6.03
2017-06-29T17:00:19.057Z,5.87
2017-06-29T17:02:46.391Z,6.03
2017-06-29T17:05:12.828Z,5.40
2017-06-29T17:07:41.579Z,5.80
2017-06-29T17:10:09.698Z,6.30
2017-06-29T17:12:37.115Z,6.07
2017-06-29T17:15:03.569Z,5.47
2017-06-29T17:17:32.188Z,4.90
2017-06-29T17:19:58.883Z,4.80
2017-06-29T17:22:25.519Z,7.20
2017-06-29T17:24:51.925Z,5.70
2017-06-29T17:27:18.494Z,5.10
2017-06-29T17:29:45.094Z,5.50
2017-06-29T17:32:11.574Z,7.10
2017-06-29T17:34:38.272Z,4.93
2017-06-29T17:37:04.705Z,5.30
2017-06-29T17:39:31.105Z,6.43
2017-06-29T17:41:57.567Z,6.47
2017-06-29T17:44:24.252Z,5.70
2017-06-29T17:46:50.817Z,6.20
2017-06-29T17:49:17.289Z,7.97
2017-06-29T17:51:43.775Z,6.30
2017-06-29T17:54:11.026Z,5.30
2017-06-29T17:56:37.718Z,5.57
2017-06-29T17:59:04.155Z,5.47
2017-06-29T18:01:30.954Z,7.10
2017-06-29T18:03:58.255Z,6.13
2017-06-29T18:06:24.675Z,5.10
2017-06-29T18:08:51.111Z,5.60
2017-06-29T18:11:17.516Z,6.50
2017-06-29T18:13:43.943Z,5.77
2017-06-29T18:16:10.372Z,6.00
2017-06-29T18:18:44.526Z,5.30
2017-06-29T18:21:10.995Z,6.33
2017-06-29T18:23:37.565Z,5.60
2017-06-29T18:26:04.180Z,5.87
2017-06-29T18:28:31.067Z,6.60
2017-06-29T18:30:57.484Z,6.13
2017-06-29T18:33:25.780Z,6.73
2017-06-29T18:35:54.104Z,6.30
2017-06-29T18:38:20.548Z,5.60
2017-06-29T18:40:47.101Z,7.87
2017-06-29T18:43:13.860Z,7.50
2017-06-29T18:45:40.442Z,6.70
2017-06-29T18:48:07.025Z,7.43
2017-06-29T18:50:33.426Z,8.40
2017-06-29T18:52:59.898Z,6.57
2017-06-29T18:55:27.391Z,8.00
2017-06-29T18:57:53.828Z,6.50
2017-06-29T19:00:20.310Z,5.77
2017-06-29T19:02:46.749Z,8.83
2017-06-29T19:05:13.168Z,9.23
2017-06-29T19:07:39.701Z,7.47
2017-06-29T19:10:10.815Z,6.80
2017-06-29T19:12:37.298Z,6.80
2017-06-29T19:15:03.690Z,6.80
2017-06-29T19:17:30.871Z,9.13
2017-06-29T19:19:58.221Z,8.00
2017-06-29T19:22:25.545Z,7.47
2017-06-29T19:24:52.051Z,6.80
2017-06-29T19:27:18.507Z,7.33
2017-06-29T19:29:46.142Z,7.60
2017-06-29T19:32:12.619Z,6.33
2017-06-29T19:34:40.139Z,8.77
2017-06-29T19:37:06.729Z,7.90
2017-06-29T19:39:33.132Z,7.07
2017-06-29T19:41:59.562Z,6.43
2017-06-29T19:44:26.192Z,7.13
2017-06-29T19:46:52.682Z,8.40
2017-06-29T19:49:19.143Z,8.83
2017-06-29T19:51:45.560Z,6.07
2017-06-29T19:54:12.048Z,7.17
2017-06-29T19:56:38.504Z,7.70
2017-06-29T19:59:05.001Z,7.27
2017-06-29T20:01:32.015Z,7.70
2017-06-29T20:03:58.752Z,12.20
2017-06-29T20:06:25.224Z,7.73
2017-06-29T20:08:54.181Z,8.60
2017-06-29T20:11:21.402Z,7.60
2017-06-29T20:14:02.704Z,10.77
2017-06-29T20:16:29.129Z,7.10
2017-06-29T20:18:55.539Z,7.50
2017-06-29T20:21:22.106Z,8.40
2017-06-29T20:23:48.623Z,7.00
2017-06-29T20:26:15.165Z,7.50
2017-06-29T20:28:44.753Z,8.60
2017-06-29T20:31:11.267Z,7.23
2017-06-29T20:33:43.372Z,7.17
2017-06-29T20:36:10.094Z,9.53
2017-06-29T20:38:36.539Z,13.87
2017-06-29T20:41:03.156Z,6.70
2017-06-29T20:43:29.908Z,7.23
2017-06-29T20:45:56.462Z,6.77
2017-06-29T20:48:23.478Z,6.23
2017-06-29T20:50:50.531Z,6.93
2017-06-29T20:53:18.012Z,6.23
2017-06-29T20:55:44.769Z,9.80
2017-06-29T20:58:11.960Z,6.50
2017-06-29T21:00:38.354Z,6.73
2017-06-29T21:03:04.763Z,7.33
2017-06-29T21:05:31.139Z,6.60
2017-06-29T21:07:57.651Z,5.73
2017-06-29T21:10:24.137Z,7.13
2017-06-29T21:12:50.754Z,9.37
2017-06-29T21:15:17.203Z,7.00
2017-06-29T21:17:43.587Z,6.93
2017-06-29T21:20:10.036Z,6.30
2017-06-29T21:22:36.473Z,6.90
2017-06-29T21:25:02.978Z,6.20
2017-06-29T21:27:29.410Z,6.30
2017-06-29T21:29:55.801Z,5.93
2017-06-29T21:32:22.224Z,5.80
2017-06-29T21:34:48.658Z,5.17
2017-06-29T21:37:15.111Z,5.80
2017-06-29T21:39:41.549Z,5.80
2017-06-29T21:42:08.731Z,5.73
2017-06-29T21:44:35.260Z,5.60
2017-06-29T21:47:09.897Z,5.23
2017-06-29T21:49:36.322Z,6.23
2017-06-29T21:52:02.745Z,5.17
2017-06-29T21:54:29.156Z,4.90
2017-06-29T21:56:55.556Z,6.23
2017-06-29T21:59:22.044Z,5.10
2017-06-29T22:01:48.459Z,4.77
2017-06-29T22:04:15.644Z,4.07
2017-06-29T22:06:42.044Z,7.70
2017-06-29T22:09:09.202Z,4.17
2017-06-29T22:11:35.616Z,4.40
2017-06-29T22:14:02.222Z,6.60
2017-06-29T22:16:28.705Z,3.93
2017-06-29T22:18:55.237Z,5.03
2017-06-29T22:21:22.449Z,4.30
2017-06-29T22:26:21.160Z,5.07
2017-06-29T22:28:47.563Z,4.70
2017-06-29T22:31:13.968Z,7.90
2017-06-29T22:33:40.359Z,4.53
2017-06-29T22:36:07.005Z,6.00
2017-06-29T22:38:33.417Z,4.70
2017-06-29T22:41:03.823Z,5.77
2017-06-29T22:43:30.236Z,4.63
2017-06-29T22:45:56.671Z,5.80
2017-06-29T22:48:23.291Z,7.23
2017-06-29T22:50:49.726Z,4.73
2017-06-29T22:53:16.124Z,4.83
2017-06-29T22:55:43.280Z,6.50
2017-06-29T22:58:09.775Z,5.03
2017-06-29T23:00:36.281Z,5.00
2017-06-29T23:03:02.772Z,5.83
2017-06-29T23:05:29.384Z,5.30
2017-06-29T23:07:55.829Z,4.67
2017-06-29T23:10:22.248Z,4.63
2017-06-29T23:12:48.698Z,5.07
2017-06-29T23:15:15.109Z,4.50
2017-06-29T23:17:41.557Z,4.83
2017-06-29T23:20:08.197Z,4.40
2017-06-29T23:22:34.649Z,4.50
2017-06-29T23:25:01.075Z,4.67
2017-06-29T23:27:27.491Z,4.00
2017-06-29T23:29:53.899Z,5.23
2017-06-29T23:32:20.368Z,6.00
2017-06-29T23:34:46.806Z,4.73
2017-06-29T23:37:13.243Z,6.90
2017-06-29T23:39:39.696Z,6.23
2017-06-29T23:42:06.119Z,4.47
2017-06-29T23:44:32.541Z,5.00
2017-06-29T23:46:58.970Z,5.30
2017-06-29T23:49:26.174Z,4.63
2017-06-29T23:51:52.958Z,5.80
2017-06-29T23:54:19.384Z,5.40
2017-06-29T23:56:45.813Z,5.60
2017-06-29T23:59:13.130Z,8.10
